Time;durP1;ratioP1;P1;durP2;ratioP2;P2;SDS_P1;SDS_P2;PMS_P1;PMS_P2;Temp;Humidity;BMP_temperature;BMP_pressure;BME280_temperature;BME280_humidity;BME280_pressure;Samples;Min_cycle;Max_cycle;Signal;HPM_P1;HPM_P2
2021/06/29 00:01:45;;;;;;;0.63;0.63;;;;;;;22.17;100.00;99976.31;5065671;28;20524;-55
2021/06/29 00:04:11;;;;;;;0.50;0.30;;;;;;;22.09;100.00;99968.81;5066371;28;20450;-55
2021/06/29 00:06:38;;;;;;;0.97;0.50;;;;;;;21.75;100.00;99967.06;5071936;28;20853;-55
2021/06/29 00:09:04;;;;;;;0.50;0.20;;;;;;;21.89;100.00;99964.97;5070457;28;20793;-55
2021/06/29 00:11:31;;;;;;;0.50;0.33;;;;;;;21.95;100.00;99960.06;5066627;28;20486;-55
2021/06/29 00:13:58;;;;;;;1.13;1.13;;;;;;;21.55;100.00;99949.75;5069253;28;20515;-55
2021/06/29 00:16:24;;;;;;;0.50;0.30;;;;;;;21.70;100.00;99950.34;5060163;28;20465;-57
2021/06/29 00:18:51;;;;;;;0.50;0.30;;;;;;;21.80;100.00;99945.94;5057992;28;20546;-55
2021/06/29 00:21:18;;;;;;;0.50;0.23;;;;;;;21.83;100.00;99943.84;5062819;28;20475;-55
2021/06/29 00:23:45;;;;;;;0.63;0.63;;;;;;;21.87;100.00;99930.91;5068031;28;20904;-55
2021/06/29 00:26:11;;;;;;;0.50;0.30;;;;;;;21.94;100.00;99925.88;5070655;28;20435;-55
2021/06/29 00:28:38;;;;;;;0.50;0.37;;;;;;;21.91;100.00;99921.53;5070417;28;20879;-55
2021/06/29 00:31:06;;;;;;;0.50;0.40;;;;;;;21.96;100.00;99922.06;5061877;28;20546;-56
2021/06/29 00:33:34;;;;;;;0.50;0.30;;;;;;;21.85;100.00;99925.63;5064783;28;20525;-55
2021/06/29 00:36:00;;;;;;;0.50;0.30;;;;;;;21.80;100.00;99932.41;5051526;28;21015;-55
2021/06/29 00:38:27;;;;;;;0.60;0.60;;;;;;;21.78;100.00;99934.34;5068382;28;20978;-55
2021/06/29 00:40:54;;;;;;;0.50;0.30;;;;;;;21.77;100.00;99940.75;5071546;28;20465;-55
2021/06/29 00:43:21;;;;;;;0.50;0.30;;;;;;;21.75;100.00;99930.06;5069215;28;20504;-56
2021/06/29 00:45:48;;;;;;;1.53;1.47;;;;;;;21.69;100.00;99927.84;5063339;28;20466;-55
2021/06/29 00:48:15;;;;;;;0.50;0.20;;;;;;;21.56;100.00;99927.97;5069057;28;20450;-55
2021/06/29 00:50:43;;;;;;;0.47;0.20;;;;;;;21.72;100.00;99924.88;5066942;28;20470;-55
2021/06/29 00:53:11;;;;;;;1.07;1.07;;;;;;;21.52;100.00;99925.66;5075550;28;20489;-55
2021/06/29 00:55:41;;;;;;;0.50;0.20;;;;;;;21.19;100.00;99921.00;5075726;28;20453;-55
2021/06/29 00:58:09;;;;;;;0.50;0.20;;;;;;;21.37;100.00;99926.84;5075446;28;20461;-55
2021/06/29 01:00:41;;;;;;;0.50;0.30;;;;;;;21.27;100.00;99926.72;5072067;28;20531;-55
2021/06/29 01:03:08;;;;;;;0.80;0.80;;;;;;;20.89;100.00;99930.53;5062729;28;20446;-55
2021/06/29 01:05:35;;;;;;;0.50;0.20;;;;;;;20.43;100.00;99930.47;5075488;28;20452;-55
2021/06/29 01:08:02;;;;;;;0.50;0.20;;;;;;;20.49;100.00;99931.84;5075563;28;20449;-55
2021/06/29 01:10:29;;;;;;;0.60;0.50;;;;;;;20.74;100.00;99928.16;5075114;28;20492;-55
2021/06/29 01:12:55;;;;;;;0.50;0.20;;;;;;;20.74;100.00;99931.72;5075420;28;20481;-55
2021/06/29 01:15:23;;;;;;;0.50;0.23;;;;;;;20.90;100.00;99929.53;5072452;28;20996;-55
2021/06/29 01:17:55;;;;;;;0.50;0.20;;;;;;;20.91;100.00;99925.88;5062654;28;20446;-55
2021/06/29 01:20:34;;;;;;;0.50;0.30;;;;;;;20.96;100.00;99930.91;5073849;28;20470;-55
2021/06/29 01:23:04;;;;;;;0.50;0.20;;;;;;;20.88;100.00;99922.53;5065009;28;20442;-55
2021/06/29 01:25:32;;;;;;;0.40;0.20;;;;;;;20.95;100.00;99923.78;5061510;28;20452;-55
2021/06/29 01:32:55;;;;;;;0.50;0.20;;;;;;;20.66;100.00;99912.50;5069650;28;20515;-55
2021/06/29 01:35:22;;;;;;;0.50;0.30;;;;;;;20.93;100.00;99912.22;5061049;28;20463;-55
2021/06/29 01:37:51;;;;;;;0.50;0.20;;;;;;;21.16;100.00;99895.09;5066590;28;20457;-55
2021/06/29 01:40:23;;;;;;;0.40;0.20;;;;;;;20.72;100.00;99895.00;5074448;28;20881;-55
2021/06/29 01:42:53;;;;;;;0.50;0.20;;;;;;;20.62;100.00;99895.69;5073750;28;20453;-55
2021/06/29 01:45:20;;;;;;;0.50;0.20;;;;;;;20.60;100.00;99883.28;5074860;28;20860;-55
2021/06/29 01:50:17;;;;;;;0.50;0.20;;;;;;;19.62;100.00;99878.91;5074398;28;20491;-55
2021/06/29 01:52:44;;;;;;;0.50;0.30;;;;;;;19.76;100.00;99873.38;5074416;28;20923;-55
2021/06/29 01:55:12;;;;;;;0.97;0.97;;;;;;;19.86;100.00;99879.78;5065365;28;20792;-55
2021/06/29 01:57:41;;;;;;;0.50;0.20;;;;;;;20.02;100.00;99888.50;5068832;28;20449;-55
2021/06/29 02:00:10;;;;;;;0.50;0.20;;;;;;;20.05;100.00;99899.06;5074410;28;20519;-55
2021/06/29 02:02:37;;;;;;;0.47;0.20;;;;;;;20.23;100.00;99904.94;5060277;28;20447;-55
2021/06/29 02:05:04;;;;;;;0.50;0.20;;;;;;;20.03;100.00;99898.31;5063078;28;20450;-55
2021/06/29 02:07:31;;;;;;;0.50;0.30;;;;;;;20.06;100.00;99891.84;5074060;28;20560;-55
2021/06/29 02:09:57;;;;;;;0.47;0.20;;;;;;;20.03;100.00;99892.06;5074263;28;20500;-55
2021/06/29 02:12:24;;;;;;;0.50;0.30;;;;;;;19.99;100.00;99895.94;5073985;28;20450;-55
2021/06/29 02:14:51;;;;;;;0.50;0.20;;;;;;;20.01;100.00;99896.69;5071403;28;20485;-55
2021/06/29 02:17:17;;;;;;;0.50;0.20;;;;;;;19.86;100.00;99904.06;5070042;28;20531;-55
2021/06/29 02:19:44;;;;;;;0.50;0.20;;;;;;;19.89;100.00;99901.19;5063480;28;20855;-55
2021/06/29 02:22:11;;;;;;;0.50;0.30;;;;;;;20.03;100.00;99892.94;5073773;28;20494;-55
2021/06/29 02:24:37;;;;;;;0.50;0.40;;;;;;;20.20;100.00;99899.75;5073767;28;20449;-55
2021/06/29 02:27:05;;;;;;;0.50;0.20;;;;;;;20.26;100.00;99914.63;5073972;28;20923;-55
2021/06/29 02:29:31;;;;;;;0.40;0.20;;;;;;;20.29;100.00;99915.28;5063984;28;20451;-55
2021/06/29 02:31:58;;;;;;;0.50;0.20;;;;;;;20.01;100.00;99907.47;5065760;28;20474;-55
2021/06/29 02:34:25;;;;;;;0.40;0.20;;;;;;;19.94;100.00;99907.09;5070770;28;20547;-55
2021/06/29 02:36:51;;;;;;;9.00;1.77;;;;;;;19.69;100.00;99902.63;5059871;28;20473;-55
2021/06/29 02:39:18;;;;;;;0.43;0.20;;;;;;;19.96;100.00;99906.97;5073201;28;20955;-55
2021/06/29 02:41:44;;;;;;;0.40;0.20;;;;;;;19.77;100.00;99902.06;5070508;28;20528;-55
2021/06/29 02:44:11;;;;;;;0.83;0.83;;;;;;;19.64;100.00;99894.00;5063869;28;20442;-55
2021/06/29 02:46:38;;;;;;;0.50;0.30;;;;;;;19.65;100.00;99902.97;5073015;28;20524;-55
2021/06/29 02:49:05;;;;;;;0.60;0.30;;;;;;;19.70;100.00;99911.56;5072936;28;20613;-55
2021/06/29 02:51:32;;;;;;;0.50;0.30;;;;;;;19.59;100.00;99909.63;5059779;28;20466;-55
2021/06/29 02:53:58;;;;;;;0.50;0.23;;;;;;;19.67;100.00;99912.66;5068150;28;20494;-55
2021/06/29 02:56:37;;;;;;;0.50;0.20;;;;;;;19.63;100.00;99913.00;5057167;28;20517;-55
2021/06/29 02:59:08;;;;;;;0.47;0.27;;;;;;;19.61;100.00;99923.03;5073033;28;20477;-55
2021/06/29 03:01:35;;;;;;;0.40;0.20;;;;;;;19.47;100.00;99918.59;5052883;28;20504;-55
2021/06/29 03:04:02;;;;;;;0.50;0.20;;;;;;;19.69;100.00;99918.78;5053277;28;20455;-55
2021/06/29 03:06:29;;;;;;;0.50;0.30;;;;;;;19.96;100.00;99912.38;5052955;28;20451;-55
2021/06/29 03:08:55;;;;;;;0.50;0.30;;;;;;;19.86;100.00;99916.72;5050440;28;20458;-55
2021/06/29 03:11:22;;;;;;;0.40;0.20;;;;;;;20.00;100.00;99914.72;5052015;28;20540;-55
2021/06/29 03:13:48;;;;;;;0.40;0.20;;;;;;;20.26;100.00;99923.59;5053434;28;21164;-55
2021/06/29 03:16:15;;;;;;;0.40;0.20;;;;;;;20.18;100.00;99912.53;5072387;28;20919;-55
2021/06/29 03:18:42;;;;;;;0.40;0.20;;;;;;;19.99;100.00;99904.03;5073145;28;20470;-54
2021/06/29 03:21:08;;;;;;;0.40;0.20;;;;;;;20.17;100.00;99912.63;5064914;28;20913;-55
2021/06/29 03:23:35;;;;;;;0.90;0.63;;;;;;;20.17;100.00;99913.50;5067228;28;20442;-55
2021/06/29 03:26:03;;;;;;;0.40;0.20;;;;;;;20.11;100.00;99922.03;5058188;28;20522;-55
2021/06/29 03:28:29;;;;;;;0.50;0.30;;;;;;;20.17;100.00;99927.00;5053873;28;20450;-54
2021/06/29 03:30:57;;;;;;;0.40;0.20;;;;;;;20.26;100.00;99920.88;5071966;28;20523;-55
2021/06/29 03:33:23;;;;;;;0.40;0.20;;;;;;;20.32;100.00;99919.59;5051832;28;20491;-55
2021/06/29 03:35:50;;;;;;;0.40;0.20;;;;;;;20.28;100.00;99918.94;5052550;28;20998;-55
2021/06/29 03:38:17;;;;;;;0.40;0.20;;;;;;;20.37;100.00;99914.69;5051925;28;21013;-55
2021/06/29 03:40:43;;;;;;;0.40;0.20;;;;;;;20.36;100.00;99919.22;5051963;28;20479;-55
2021/06/29 03:43:10;;;;;;;0.43;0.30;;;;;;;20.47;100.00;99910.38;5051619;28;20459;-55
2021/06/29 03:45:37;;;;;;;0.50;0.30;;;;;;;20.32;100.00;99898.00;5051010;28;20470;-55
2021/06/29 03:48:04;;;;;;;0.50;0.40;;;;;;;20.36;100.00;99900.34;5051574;28;20504;-55
2021/06/29 03:50:30;;;;;;;0.50;0.30;;;;;;;20.38;100.00;99898.38;5051579;28;20544;-54
2021/06/29 03:52:57;;;;;;;0.50;0.30;;;;;;;20.39;100.00;99893.84;5051639;28;20454;-55
2021/06/29 03:55:24;;;;;;;0.50;0.40;;;;;;;20.44;100.00;99888.13;5051877;28;20860;-55
2021/06/29 03:57:51;;;;;;;0.40;0.20;;;;;;;20.55;100.00;99886.31;5051310;28;20508;-55
2021/06/29 04:00:17;;;;;;;0.40;0.20;;;;;;;20.38;100.00;99876.78;5051752;28;20532;-54
2021/06/29 04:02:44;;;;;;;0.50;0.20;;;;;;;20.34;100.00;99875.28;5051389;28;21026;-55
2021/06/29 04:05:11;;;;;;;0.40;0.20;;;;;;;20.31;100.00;99874.66;5051433;28;20454;-55
2021/06/29 04:07:37;;;;;;;0.50;0.40;;;;;;;20.33;100.00;99886.22;5057886;28;20531;-54
2021/06/29 04:10:05;;;;;;;0.40;0.20;;;;;;;20.58;100.00;99880.72;5062072;28;20478;-55
2021/06/29 04:12:32;;;;;;;0.40;0.30;;;;;;;20.29;100.00;99882.03;5068059;28;20450;-54
2021/06/29 04:14:59;;;;;;;0.40;0.20;;;;;;;20.23;100.00;99888.72;5071509;28;20485;-55
2021/06/29 04:17:26;;;;;;;0.40;0.20;;;;;;;20.23;100.00;99877.06;5057937;28;20446;-55
2021/06/29 04:19:52;;;;;;;0.40;0.20;;;;;;;20.35;100.00;99860.81;5070839;28;20457;-55
2021/06/29 04:22:19;;;;;;;0.63;0.63;;;;;;;19.81;100.00;99860.41;5061938;28;20454;-55
2021/06/29 04:24:46;;;;;;;0.40;0.30;;;;;;;19.72;100.00;99856.53;5070708;28;20449;-54
2021/06/29 04:27:12;;;;;;;0.50;0.40;;;;;;;19.65;100.00;99849.03;5057585;28;20537;-55
2021/06/29 04:29:39;;;;;;;1.17;1.07;;;;;;;19.74;100.00;99846.53;5071201;28;20503;-55
2021/06/29 04:32:06;;;;;;;0.40;0.20;;;;;;;19.63;100.00;99851.84;5066313;28;20470;-55
2021/06/29 04:34:33;;;;;;;0.40;0.30;;;;;;;19.80;100.00;99851.44;5071288;28;20486;-55
2021/06/29 04:37:01;;;;;;;0.40;0.20;;;;;;;19.93;100.00;99845.16;5071966;28;20453;-55
2021/06/29 04:39:28;;;;;;;4.83;0.57;;;;;;;20.06;100.00;99852.22;5071728;28;20570;-55
2021/06/29 04:41:55;;;;;;;0.40;0.20;;;;;;;20.20;100.00;99847.63;5071581;28;20466;-55
2021/06/29 04:44:22;;;;;;;0.40;0.20;;;;;;;20.22;100.00;99859.16;5071861;28;20499;-55
2021/06/29 04:46:50;;;;;;;0.40;0.20;;;;;;;20.15;100.00;99856.06;5057246;28;20458;-55
2021/06/29 04:49:21;;;;;;;0.50;0.30;;;;;;;20.25;100.00;99873.28;5071611;28;20473;-55
2021/06/29 04:51:48;;;;;;;0.50;0.40;;;;;;;20.30;100.00;99875.66;5071522;28;20466;-55
2021/06/29 04:54:15;;;;;;;0.43;0.30;;;;;;;20.39;100.00;99875.78;5071374;28;20552;-54
2021/06/29 04:56:41;;;;;;;0.50;0.43;;;;;;;20.76;100.00;99886.53;5057876;28;20449;-55
2021/06/29 04:59:08;;;;;;;0.40;0.20;;;;;;;20.60;100.00;99888.69;5071010;28;20450;-55
2021/06/29 05:01:35;;;;;;;0.40;0.20;;;;;;;20.62;100.00;99886.72;5049863;28;20490;-55
2021/06/29 05:04:02;;;;;;;0.40;0.20;;;;;;;20.54;100.00;99891.84;5051003;28;20537;-55
2021/06/29 05:06:29;;;;;;;0.40;0.20;;;;;;;20.63;100.00;99883.91;5050861;28;20455;-54
2021/06/29 05:08:55;;;;;;;4.77;0.90;;;;;;;20.88;100.00;99884.72;5050767;28;21021;-54
2021/06/29 05:11:22;;;;;;;0.70;0.63;;;;;;;20.99;100.00;99891.00;5051400;28;20482;-54
2021/06/29 05:13:48;;;;;;;0.40;0.30;;;;;;;21.26;100.00;99888.00;5052385;28;20486;-53
2021/06/29 05:16:15;;;;;;;0.40;0.20;;;;;;;21.45;100.00;99876.56;5063479;28;20846;-54
2021/06/29 05:18:42;;;;;;;0.40;0.30;;;;;;;21.68;100.00;99872.03;5065720;28;20457;-54
2021/06/29 05:21:08;;;;;;;1.47;0.73;;;;;;;21.21;100.00;99863.13;5062322;28;20536;-54
2021/06/29 05:23:35;;;;;;;0.60;0.50;;;;;;;21.30;100.00;99867.00;5062563;28;20507;-54
2021/06/29 05:26:02;;;;;;;0.40;0.20;;;;;;;21.19;100.00;99856.13;5059233;28;20449;-54
2021/06/29 05:28:28;;;;;;;0.40;0.20;;;;;;;21.08;100.00;99848.00;5071672;28;20445;-54
2021/06/29 05:30:55;;;;;;;0.47;0.23;;;;;;;21.11;100.00;99845.09;5073536;28;20470;-54
2021/06/29 05:33:22;;;;;;;1.07;1.07;;;;;;;21.09;100.00;99853.28;5070307;28;20472;-54
2021/06/29 05:35:49;;;;;;;0.43;0.20;;;;;;;21.09;100.00;99850.59;5075799;28;20519;-54
2021/06/29 05:38:15;;;;;;;0.50;0.30;;;;;;;21.31;100.00;99847.06;5074881;28;20450;-53
2021/06/29 05:40:42;;;;;;;0.40;0.20;;;;;;;21.52;100.00;99863.44;5066002;28;20482;-54
2021/06/29 05:43:09;;;;;;;0.47;0.27;;;;;;;21.93;100.00;99860.06;5069816;28;20450;-54
2021/06/29 05:45:35;;;;;;;0.40;0.20;;;;;;;21.72;99.90;99849.13;5074398;28;20461;-54
2021/06/29 05:48:02;;;;;;;0.50;0.20;;;;;;;21.82;99.83;99854.66;5074205;28;20911;-54
2021/06/29 05:50:29;;;;;;;0.50;0.37;;;;;;;21.82;99.66;99857.38;5065273;28;20479;-54
2021/06/29 05:52:55;;;;;;;0.50;0.30;;;;;;;21.33;100.00;99849.66;5070172;28;20441;-54
2021/06/29 05:55:22;;;;;;;0.63;0.63;;;;;;;21.41;100.00;99853.47;5071919;28;20531;-53
2021/06/29 05:58:09;;;;;;;0.70;0.70;;;;;;;21.38;100.00;99855.53;5060044;28;20458;-54
2021/06/29 06:00:35;;;;;;;0.50;0.40;;;;;;;21.16;100.00;99859.94;5074193;28;20500;-54
2021/06/29 06:03:02;;;;;;;0.40;0.20;;;;;;;21.54;100.00;99856.06;5062423;28;20450;-54
2021/06/29 06:05:29;;;;;;;0.40;0.20;;;;;;;21.74;100.00;99859.81;5073168;28;20463;-53
2021/06/29 06:07:56;;;;;;;0.93;0.40;;;;;;;21.36;100.00;99852.09;5059523;28;20457;-54
2021/06/29 06:10:22;;;;;;;0.50;0.30;;;;;;;20.98;100.00;99851.47;5060361;28;20510;-54
2021/06/29 06:12:49;;;;;;;0.50;0.20;;;;;;;21.33;100.00;99853.22;5072885;28;20518;-54
2021/06/29 06:15:15;;;;;;;0.40;0.30;;;;;;;21.04;100.00;99846.53;5074171;28;20485;-54
2021/06/29 06:17:42;;;;;;;0.40;0.30;;;;;;;21.12;100.00;99846.81;5058734;28;20511;-54
2021/06/29 06:20:10;;;;;;;0.40;0.23;;;;;;;21.52;100.00;99842.66;5067998;28;20893;-54
2021/06/29 06:22:38;;;;;;;0.93;0.93;;;;;;;21.38;100.00;99847.44;5063952;28;20481;-54
2021/06/29 06:25:06;;;;;;;1.37;0.80;;;;;;;21.22;100.00;99847.78;5067153;28;20438;-54
2021/06/29 06:27:33;;;;;;;0.40;0.20;;;;;;;21.53;100.00;99844.38;5074209;28;20540;-54
2021/06/29 06:30:00;;;;;;;10.30;1.27;;;;;;;22.30;97.17;99843.44;5073755;28;20453;-54
2021/06/29 06:32:27;;;;;;;0.50;0.40;;;;;;;21.94;97.63;99840.13;5070010;28;20450;-54
2021/06/29 06:34:54;;;;;;;0.40;0.20;;;;;;;22.06;98.26;99830.97;5058660;28;20494;-54
2021/06/29 06:37:20;;;;;;;1.23;1.13;;;;;;;21.78;98.28;99826.09;5073818;28;20951;-54
2021/06/29 06:39:47;;;;;;;0.43;0.27;;;;;;;21.95;98.88;99833.72;5074038;28;20443;-54
2021/06/29 06:42:14;;;;;;;0.40;0.20;;;;;;;21.95;99.96;99838.28;5071597;28;20480;-54
2021/06/29 06:44:41;;;;;;;0.40;0.20;;;;;;;22.53;96.53;99838.81;5071626;28;20523;-54
2021/06/29 06:47:08;;;;;;;0.40;0.20;;;;;;;22.17;98.41;99833.66;5074051;28;20992;-55
2021/06/29 06:49:34;;;;;;;1.27;0.57;;;;;;;22.29;96.28;99833.63;5072398;28;20448;-54
2021/06/29 06:52:01;;;;;;;0.50;0.20;;;;;;;22.27;96.62;99841.88;5073979;28;20523;-55
2021/06/29 06:54:28;;;;;;;0.40;0.20;;;;;;;22.40;96.56;99831.72;5072585;28;20493;-55
2021/06/29 06:56:54;;;;;;;1.00;1.00;;;;;;;22.33;96.82;99844.03;5073658;28;20885;-54
2021/06/29 06:59:21;;;;;;;0.60;0.40;;;;;;;22.47;96.35;99832.91;5065499;28;20459;-55
2021/06/29 07:01:48;;;;;;;0.50;0.30;;;;;;;22.82;95.03;99826.31;5065771;28;20463;-55
2021/06/29 07:04:16;;;;;;;0.50;0.30;;;;;;;23.14;93.71;99834.34;5069872;28;20529;-55
2021/06/29 07:06:43;;;;;;;0.50;0.30;;;;;;;23.70;91.15;99828.47;5068182;28;20462;-55
2021/06/29 07:09:10;;;;;;;0.50;0.30;;;;;;;24.32;89.81;99835.47;5058888;28;20508;-55
2021/06/29 07:11:48;;;;;;;0.50;0.40;;;;;;;24.12;88.36;99841.81;5073146;28;20921;-54
2021/06/29 07:14:14;;;;;;;0.70;0.70;;;;;;;24.14;89.22;99840.72;5073198;28;20488;-55
2021/06/29 07:16:42;;;;;;;0.50;0.30;;;;;;;24.22;86.46;99845.41;5061620;28;20503;-55
2021/06/29 07:19:09;;;;;;;4.20;0.73;;;;;;;24.17;87.25;99840.41;5064252;28;20485;-55
2021/06/29 07:21:36;;;;;;;0.50;0.30;;;;;;;23.94;88.55;99831.66;5056976;28;20449;-55
2021/06/29 07:24:04;;;;;;;0.50;0.20;;;;;;;23.83;88.43;99831.78;5070025;28;20420;-55
2021/06/29 07:26:31;;;;;;;0.50;0.30;;;;;;;23.91;87.96;99825.66;5075453;28;20457;-55
2021/06/29 07:28:57;;;;;;;0.50;0.20;;;;;;;24.31;86.87;99838.31;5067269;28;20469;-55
2021/06/29 07:31:24;;;;;;;0.50;0.37;;;;;;;23.82;86.03;99832.78;5055279;28;20993;-55
2021/06/29 07:33:51;;;;;;;0.50;0.23;;;;;;;23.61;87.72;99832.88;5058010;28;20454;-55
2021/06/29 07:36:20;;;;;;;0.50;0.33;;;;;;;24.05;86.90;99837.97;5071739;28;20468;-54
2021/06/29 07:38:47;;;;;;;0.70;0.70;;;;;;;23.89;86.94;99824.94;5072926;28;20865;-55
2021/06/29 07:41:15;;;;;;;0.50;0.40;;;;;;;23.60;88.27;99833.88;5072536;28;20983;-55
2021/06/29 07:43:42;;;;;;;0.40;0.20;;;;;;;24.03;86.43;99834.53;5063743;28;20971;-54
2021/06/29 07:46:09;;;;;;;0.50;0.20;;;;;;;24.79;84.43;99825.53;5072510;28;20458;-54
2021/06/29 07:48:36;;;;;;;0.50;0.30;;;;;;;24.65;82.76;99825.13;5071862;28;20462;-55
2021/06/29 07:51:05;;;;;;;0.73;0.73;;;;;;;24.98;81.63;99816.50;5070927;28;20445;-55
2021/06/29 07:53:33;;;;;;;0.40;0.30;;;;;;;24.98;81.05;99815.63;5072672;28;20564;-55
2021/06/29 07:56:00;;;;;;;9.23;2.03;;;;;;;25.47;80.87;99805.44;5072318;28;20464;-55
2021/06/29 07:58:28;;;;;;;0.50;0.30;;;;;;;24.64;79.97;99798.94;5072759;28;20432;-55
2021/06/29 08:00:55;;;;;;;0.40;0.30;;;;;;;24.70;81.53;99796.53;5072399;28;20470;-55
2021/06/29 08:03:23;;;;;;;0.50;0.30;;;;;;;24.51;81.41;99797.38;5060305;28;20504;-55
2021/06/29 08:05:52;;;;;;;0.50;0.23;;;;;;;24.75;80.29;99794.22;5072068;28;20461;-55
2021/06/29 08:08:18;;;;;;;0.50;0.23;;;;;;;25.22;77.69;99783.38;5072556;28;20450;-54
2021/06/29 08:10:46;;;;;;;0.40;0.30;;;;;;;25.26;76.80;99784.78;5071778;28;20938;-54
2021/06/29 08:13:13;;;;;;;0.47;0.20;;;;;;;25.45;75.26;99791.97;5072364;28;20442;-54
2021/06/29 08:15:40;;;;;;;0.50;0.50;;;;;;;25.11;75.14;99786.28;5069274;28;21525;-54
2021/06/29 08:18:07;;;;;;;0.50;0.30;;;;;;;25.20;76.11;99785.34;5061745;28;20965;-54
2021/06/29 08:20:34;;;;;;;0.50;0.30;;;;;;;24.81;76.33;99790.06;5072216;28;20448;-54
2021/06/29 08:23:01;;;;;;;0.47;0.20;;;;;;;24.99;76.89;99792.88;5062461;28;20461;-54
2021/06/29 08:25:28;;;;;;;0.40;0.30;;;;;;;25.27;75.20;99791.06;5071874;28;20424;-54
2021/06/29 08:27:55;;;;;;;0.50;0.30;;;;;;;24.86;74.43;99795.06;5069583;28;20465;-55
2021/06/29 08:30:22;;;;;;;0.40;0.30;;;;;;;25.15;75.55;99795.00;5058736;28;20519;-54
2021/06/29 08:32:49;;;;;;;0.50;0.30;;;;;;;24.75;75.90;99798.78;5067189;28;20453;-54
2021/06/29 08:35:16;;;;;;;0.50;0.30;;;;;;;24.63;76.63;99798.09;5071909;28;20456;-54
2021/06/29 08:37:43;;;;;;;0.50;0.30;;;;;;;24.94;76.61;99795.16;5072285;28;20478;-54
2021/06/29 08:40:12;;;;;;;0.50;0.20;;;;;;;25.24;75.09;99785.94;5065969;28;20530;-54
2021/06/29 08:42:39;;;;;;;0.40;0.30;;;;;;;25.38;74.85;99789.00;5072271;28;20477;-54
2021/06/29 08:45:12;;;;;;;0.50;0.20;;;;;;;25.87;72.25;99780.56;5071409;28;20847;-54
2021/06/29 08:47:39;;;;;;;0.40;0.27;;;;;;;26.43;71.24;99783.00;5071774;28;20985;-55
2021/06/29 08:50:09;;;;;;;0.53;0.40;;;;;;;26.73;68.26;99787.19;5071819;28;20476;-55
2021/06/29 08:52:37;;;;;;;0.40;0.20;;;;;;;26.37;68.96;99780.91;5071940;28;20454;-55
2021/06/29 08:55:09;;;;;;;0.50;0.30;;;;;;;26.05;70.01;99765.13;5067491;28;20456;-55
2021/06/29 08:57:35;;;;;;;0.50;0.40;;;;;;;26.03;70.25;99768.97;5071543;28;20428;-54
2021/06/29 09:00:06;;;;;;;0.50;0.30;;;;;;;26.30;69.93;99760.72;5071224;28;20500;-54
2021/06/29 09:02:38;;;;;;;0.50;0.30;;;;;;;26.32;68.10;99769.63;5060526;28;20425;-54
2021/06/29 09:05:22;;;;;;;0.43;0.20;;;;;;;25.94;69.00;99770.78;5071463;28;20780;-54
2021/06/29 09:08:09;;;;;;;0.50;0.30;;;;;;;25.81;70.25;99767.59;5075606;28;20495;-54
2021/06/29 09:10:38;;;;;;;0.50;0.30;;;;;;;25.59;71.01;99761.53;5075509;28;20440;-55
2021/06/29 09:13:06;;;;;;;0.50;0.30;;;;;;;25.65;71.03;99751.91;5068658;28;20433;-54
2021/06/29 09:15:42;;;;;;;0.50;0.40;;;;;;;25.49;70.94;99748.97;5073508;28;20564;-54
2021/06/29 09:18:17;;;;;;;0.50;0.30;;;;;;;26.29;68.68;99751.69;5065354;28;20416;-54
2021/06/29 09:20:53;;;;;;;0.50;0.30;;;;;;;26.28;68.03;99752.69;5073092;28;20953;-54
2021/06/29 09:23:38;;;;;;;0.40;0.23;;;;;;;26.43;69.42;99752.16;5066384;28;20420;-54
2021/06/29 09:26:13;;;;;;;0.47;0.30;;;;;;;25.77;68.21;99752.53;5074153;28;20417;-54
2021/06/29 09:28:55;;;;;;;0.50;0.30;;;;;;;25.34;69.22;99743.19;5061138;28;20527;-53
2021/06/29 09:31:27;;;;;;;0.40;0.30;;;;;;;25.12;69.88;99732.72;5072184;28;20475;-53
2021/06/29 09:33:59;;;;;;;0.63;0.63;;;;;;;26.09;68.26;99733.81;5074593;28;20533;-54
2021/06/29 09:36:28;;;;;;;0.50;0.30;;;;;;;25.60;68.62;99733.28;5075056;28;20460;-55
2021/06/29 09:38:58;;;;;;;0.47;0.30;;;;;;;25.98;67.33;99729.44;5053993;28;20479;-54
2021/06/29 09:41:31;;;;;;;0.50;0.30;;;;;;;26.58;66.36;99731.47;5068733;28;20465;-55
2021/06/29 09:44:13;;;;;;;0.50;0.30;;;;;;;26.01;67.86;99722.81;5063314;28;20460;-54
2021/06/29 09:46:41;;;;;;;0.50;0.30;;;;;;;26.31;68.03;99715.22;5074972;28;20454;-54
2021/06/29 09:49:14;;;;;;;0.40;0.30;;;;;;;26.35;66.79;99705.75;5073400;28;20852;-54
2021/06/29 09:51:49;;;;;;;0.40;0.30;;;;;;;26.66;66.65;99708.88;5074504;28;20473;-54
2021/06/29 09:54:16;;;;;;;0.40;0.23;;;;;;;26.85;64.00;99704.03;5074924;28;20416;-54
2021/06/29 09:56:46;;;;;;;0.40;0.30;;;;;;;26.98;64.71;99702.72;5074441;28;21002;-54
2021/06/29 09:59:26;;;;;;;0.50;0.30;;;;;;;27.07;60.89;99704.53;5074486;28;20911;-54
2021/06/29 10:02:04;;;;;;;0.50;0.30;;;;;;;27.32;59.94;99698.13;5066674;28;20437;-55
2021/06/29 10:04:32;;;;;;;0.50;0.30;;;;;;;28.29;58.42;99685.69;5071410;28;20519;-54
2021/06/29 10:07:12;;;;;;;0.50;0.30;;;;;;;28.25;58.29;99684.28;5074575;28;20902;-54
2021/06/29 10:09:38;;;;;;;1.70;1.13;;;;;;;28.32;57.63;99686.19;5074318;28;20425;-54
2021/06/29 10:12:06;;;;;;;0.50;0.40;;;;;;;27.94;60.47;99687.69;5074805;28;20440;-54
2021/06/29 10:14:34;;;;;;;0.50;0.30;;;;;;;26.82;61.97;99685.28;5074653;28;20424;-53
2021/06/29 10:17:04;;;;;;;0.50;0.30;;;;;;;27.15;61.60;99677.28;5061097;28;20473;-56
2021/06/29 10:22:00;;;;;;;0.50;0.30;;;;;;;26.97;60.80;99671.88;5064763;28;20482;-54
2021/06/29 10:24:32;;;;;;;0.50;0.40;;;;;;;27.44;60.42;99674.97;5074960;28;20428;-56
2021/06/29 10:27:02;;;;;;;0.50;0.50;;;;;;;27.96;59.49;99669.28;5073574;28;20417;-55
2021/06/29 10:29:30;;;;;;;0.50;0.30;;;;;;;27.31;60.27;99666.41;5073933;28;20450;-54
2021/06/29 10:32:10;;;;;;;0.43;0.30;;;;;;;28.03;59.41;99673.00;5068490;28;20469;-53
2021/06/29 10:34:38;;;;;;;0.60;0.60;;;;;;;27.98;58.03;99680.03;5072900;28;20416;-53
2021/06/29 10:37:06;;;;;;;0.50;0.30;;;;;;;28.14;57.69;99684.63;5073734;28;20521;-54
2021/06/29 10:39:35;;;;;;;0.50;0.30;;;;;;;26.72;59.84;99683.66;5074100;28;20458;-53
2021/06/29 10:42:10;;;;;;;0.40;0.30;;;;;;;27.27;59.03;99681.38;5073740;28;20444;-53
2021/06/29 10:44:51;;;;;;;0.50;0.20;;;;;;;27.25;60.53;99677.97;5073818;28;20905;-56
2021/06/29 10:47:24;;;;;;;0.50;0.30;;;;;;;26.65;61.50;99679.91;5074746;28;20437;-55
2021/06/29 10:49:53;;;;;;;0.50;0.30;;;;;;;26.92;61.92;99678.84;5073383;28;20420;-54
2021/06/29 10:52:23;;;;;;;0.50;0.30;;;;;;;26.75;61.20;99678.78;5074455;28;20472;-54
2021/06/29 10:54:54;;;;;;;0.50;0.30;;;;;;;26.66;61.47;99671.56;5073784;28;20454;-54
2021/06/29 10:57:26;;;;;;;0.43;0.30;;;;;;;27.19;60.68;99670.47;5072263;28;20450;-54
2021/06/29 10:59:58;;;;;;;0.60;0.50;;;;;;;27.30;59.77;99669.31;5073249;28;20490;-54
2021/06/29 11:02:33;;;;;;;0.50;0.27;;;;;;;28.26;58.09;99664.13;5060027;28;20425;-54
2021/06/29 11:05:05;;;;;;;0.50;0.40;;;;;;;28.85;57.09;99661.94;5061352;28;20440;-54
2021/06/29 11:07:37;;;;;;;0.50;0.30;;;;;;;29.27;54.57;99663.50;5073029;28;20820;-54
2021/06/29 11:10:09;;;;;;;0.50;0.40;;;;;;;29.22;54.20;99669.53;5073054;28;20431;-54
2021/06/29 11:12:48;;;;;;;0.50;0.30;;;;;;;29.23;55.54;99671.22;5073000;28;20492;-54
2021/06/29 11:15:15;;;;;;;0.50;0.40;;;;;;;27.66;57.20;99661.72;5073219;28;20438;-54
2021/06/29 11:17:51;;;;;;;2.80;0.40;;;;;;;27.77;57.29;99655.06;5060024;28;20454;-54
2021/06/29 11:20:21;;;;;;;0.50;0.30;;;;;;;27.63;56.96;99662.88;5073146;28;20609;-53
2021/06/29 11:22:51;;;;;;;0.50;0.30;;;;;;;28.12;57.48;99657.47;5063384;28;20554;-54
2021/06/29 11:25:53;;;;;;;0.50;0.30;;;;;;;27.80;58.33;99652.84;5072898;28;20498;-54
2021/06/29 11:28:44;;;;;;;0.50;0.30;;;;;;;27.71;57.24;99648.41;5072102;28;20575;-54
2021/06/29 11:31:20;;;;;;;0.40;0.30;;;;;;;28.45;56.05;99641.03;5070899;28;20505;-55
2021/06/29 11:33:55;;;;;;;0.50;0.30;;;;;;;28.17;57.44;99632.34;5070785;28;20424;-55
2021/06/29 11:36:25;;;;;;;0.50;0.30;;;;;;;27.81;57.74;99634.56;5072825;28;20470;-55
2021/06/29 11:39:13;;;;;;;0.73;0.70;;;;;;;27.36;58.40;99633.13;5072737;28;20454;-54
2021/06/29 11:41:51;;;;;;;0.50;0.30;;;;;;;27.41;59.26;99631.63;5072262;28;21528;-55
2021/06/29 11:44:17;;;;;;;0.50;0.30;;;;;;;27.44;59.21;99627.69;5071299;28;20420;-54
2021/06/29 11:46:59;;;;;;;0.50;0.33;;;;;;;27.23;59.26;99630.88;5072874;28;20409;-54